sensor_id;sensor_type;location;lat;lon;timestamp;pressure;altitude;pressure_sealevel;temperature;humidity
19884;BME280;10104;50.732;10.174;2023-06-22T00:01:29;98130.50;;;21.79;74.28
19884;BME280;10104;50.732;10.174;2023-06-22T00:03:51;98129.13;;;21.76;74.18
19884;BME280;10104;50.732;10.174;2023-06-22T00:06:13;98131.25;;;21.74;74.24
19884;BME280;10104;50.732;10.174;2023-06-22T00:08:37;98129.81;;;21.67;74.02
19884;BME280;10104;50.732;10.174;2023-06-22T00:10:59;98131.53;;;21.51;76.36
19884;BME280;10104;50.732;10.174;2023-06-22T00:13:20;98117.25;;;21.51;75.76
19884;BME280;10104;50.732;10.174;2023-06-22T00:15:42;98108.69;;;21.54;74.98
19884;BME280;10104;50.732;10.174;2023-06-22T00:18:06;98103.00;;;21.55;74.73
19884;BME280;10104;50.732;10.174;2023-06-22T00:20:28;98107.00;;;21.48;75.02
19884;BME280;10104;50.732;10.174;2023-06-22T00:22:51;98117.78;;;21.26;76.84
19884;BME280;10104;50.732;10.174;2023-06-22T00:25:13;98116.47;;;21.28;75.97
19884;BME280;10104;50.732;10.174;2023-06-22T00:27:35;98124.59;;;21.33;75.35
19884;BME280;10104;50.732;10.174;2023-06-22T00:29:57;98135.81;;;21.25;77.56
19884;BME280;10104;50.732;10.174;2023-06-22T00:32:18;98134.50;;;21.11;77.19
19884;BME280;10104;50.732;10.174;2023-06-22T00:34:40;98128.06;;;21.12;76.24
19884;BME280;10104;50.732;10.174;2023-06-22T00:37:02;98126.03;;;21.19;75.81
19884;BME280;10104;50.732;10.174;2023-06-22T00:39:23;98133.06;;;21.20;75.89
19884;BME280;10104;50.732;10.174;2023-06-22T00:41:45;98133.50;;;20.95;79.18
19884;BME280;10104;50.732;10.174;2023-06-22T00:44:06;98135.50;;;20.83;78.41
19884;BME280;10104;50.732;10.174;2023-06-22T00:46:28;98135.25;;;20.85;78.51
19884;BME280;10104;50.732;10.174;2023-06-22T00:48:51;98123.16;;;20.87;77.39
19884;BME280;10104;50.732;10.174;2023-06-22T00:51:13;98118.66;;;20.93;76.95
19884;BME280;10104;50.732;10.174;2023-06-22T00:53:34;98108.63;;;20.88;76.83
19884;BME280;10104;50.732;10.174;2023-06-22T00:55:58;98103.38;;;20.77;77.60
19884;BME280;10104;50.732;10.174;2023-06-22T00:58:21;98099.22;;;20.69;78.44
19884;BME280;10104;50.732;10.174;2023-06-22T01:00:43;98093.94;;;20.57;79.40
19884;BME280;10104;50.732;10.174;2023-06-22T01:03:05;98094.19;;;20.56;78.82
19884;BME280;10104;50.732;10.174;2023-06-22T01:05:31;98087.91;;;20.67;78.39
19884;BME280;10104;50.732;10.174;2023-06-22T01:10:43;98070.94;;;20.50;77.93
19884;BME280;10104;50.732;10.174;2023-06-22T01:13:11;98065.72;;;20.60;77.83
19884;BME280;10104;50.732;10.174;2023-06-22T01:15:39;98060.28;;;20.55;78.09
19884;BME280;10104;50.732;10.174;2023-06-22T01:18:03;98055.78;;;20.61;77.78
19884;BME280;10104;50.732;10.174;2023-06-22T01:20:27;98027.78;;;20.62;77.54
19884;BME280;10104;50.732;10.174;2023-06-22T01:23:27;98018.34;;;20.59;78.49
19884;BME280;10104;50.732;10.174;2023-06-22T01:25:59;97988.19;;;20.57;79.70
19884;BME280;10104;50.732;10.174;2023-06-22T01:28:45;97964.03;;;20.24;85.57
19884;BME280;10104;50.732;10.174;2023-06-22T01:31:08;97972.78;;;19.97;86.99
19884;BME280;10104;50.732;10.174;2023-06-22T01:33:33;97993.81;;;20.17;84.05
19884;BME280;10104;50.732;10.174;2023-06-22T01:35:55;97994.63;;;20.17;85.68
19884;BME280;10104;50.732;10.174;2023-06-22T01:38:17;97994.19;;;20.26;84.66
19884;BME280;10104;50.732;10.174;2023-06-22T01:40:39;98005.47;;;19.89;88.08
19884;BME280;10104;50.732;10.174;2023-06-22T01:43:01;98022.72;;;19.60;90.25
19884;BME280;10104;50.732;10.174;2023-06-22T01:45:24;98038.97;;;19.25;92.67
19884;BME280;10104;50.732;10.174;2023-06-22T01:47:47;98049.72;;;19.53;89.62
19884;BME280;10104;50.732;10.174;2023-06-22T01:50:09;98048.22;;;19.74;89.76
19884;BME280;10104;50.732;10.174;2023-06-22T01:52:30;98058.47;;;19.60;94.25
19884;BME280;10104;50.732;10.174;2023-06-22T01:54:55;98059.41;;;19.54;94.71
19884;BME280;10104;50.732;10.174;2023-06-22T01:57:19;98061.97;;;19.61;93.73
19884;BME280;10104;50.732;10.174;2023-06-22T01:59:53;98066.50;;;19.60;95.42
19884;BME280;10104;50.732;10.174;2023-06-22T02:02:19;98083.53;;;19.66;93.35
19884;BME280;10104;50.732;10.174;2023-06-22T02:04:46;98086.25;;;19.83;91.78
19884;BME280;10104;50.732;10.174;2023-06-22T02:07:13;98095.41;;;19.98;91.65
19884;BME280;10104;50.732;10.174;2023-06-22T02:09:36;98100.63;;;20.05;90.43
19884;BME280;10104;50.732;10.174;2023-06-22T02:12:00;98121.25;;;20.16;89.54
19884;BME280;10104;50.732;10.174;2023-06-22T02:14:24;98130.06;;;20.28;88.61
19884;BME280;10104;50.732;10.174;2023-06-22T02:16:46;98135.28;;;20.35;88.07
19884;BME280;10104;50.732;10.174;2023-06-22T02:19:07;98143.88;;;20.48;87.68
19884;BME280;10104;50.732;10.174;2023-06-22T02:21:30;98140.19;;;20.54;87.10
19884;BME280;10104;50.732;10.174;2023-06-22T02:23:52;98148.66;;;20.63;86.94
19884;BME280;10104;50.732;10.174;2023-06-22T02:26:16;98159.75;;;20.67;86.77
19884;BME280;10104;50.732;10.174;2023-06-22T02:28:38;98164.47;;;20.59;88.23
19884;BME280;10104;50.732;10.174;2023-06-22T02:31:00;98175.25;;;20.59;88.22
19884;BME280;10104;50.732;10.174;2023-06-22T02:33:21;98186.66;;;20.67;87.83
19884;BME280;10104;50.732;10.174;2023-06-22T02:35:43;98203.06;;;20.65;87.96
19884;BME280;10104;50.732;10.174;2023-06-22T02:38:08;98205.47;;;20.50;90.39
19884;BME280;10104;50.732;10.174;2023-06-22T02:40:30;98211.06;;;20.60;88.65
19884;BME280;10104;50.732;10.174;2023-06-22T02:42:52;98207.06;;;20.79;87.79
19884;BME280;10104;50.732;10.174;2023-06-22T02:45:14;98204.66;;;20.83;86.83
19884;BME280;10104;50.732;10.174;2023-06-22T02:47:35;98208.31;;;20.93;86.46
19884;BME280;10104;50.732;10.174;2023-06-22T02:49:57;98212.25;;;21.03;86.46
19884;BME280;10104;50.732;10.174;2023-06-22T02:52:19;98211.91;;;20.99;86.02
19884;BME280;10104;50.732;10.174;2023-06-22T02:54:40;98194.72;;;20.83;89.03
19884;BME280;10104;50.732;10.174;2023-06-22T02:57:02;98200.75;;;20.90;87.92
19884;BME280;10104;50.732;10.174;2023-06-22T02:59:24;98201.75;;;20.84;89.35
19884;BME280;10104;50.732;10.174;2023-06-22T03:01:45;98193.50;;;20.91;88.07
19884;BME280;10104;50.732;10.174;2023-06-22T03:04:07;98196.84;;;20.81;89.77
19884;BME280;10104;50.732;10.174;2023-06-22T03:06:29;98177.44;;;20.79;89.40
19884;BME280;10104;50.732;10.174;2023-06-22T03:08:51;98147.16;;;20.89;88.56
19884;BME280;10104;50.732;10.174;2023-06-22T03:11:13;98118.59;;;20.88;89.84
19884;BME280;10104;50.732;10.174;2023-06-22T03:13:34;98102.13;;;20.84;91.38
19884;BME280;10104;50.732;10.174;2023-06-22T03:15:56;98079.31;;;20.70;93.87
19884;BME280;10104;50.732;10.174;2023-06-22T03:18:17;98041.94;;;20.52;96.39
19884;BME280;10104;50.732;10.174;2023-06-22T03:20:39;98015.44;;;20.44;96.73
19884;BME280;10104;50.732;10.174;2023-06-22T03:23:00;98001.44;;;20.42;97.24
19884;BME280;10104;50.732;10.174;2023-06-22T03:25:22;97994.50;;;20.29;98.25
19884;BME280;10104;50.732;10.174;2023-06-22T03:27:43;98010.66;;;20.29;98.47
19884;BME280;10104;50.732;10.174;2023-06-22T03:30:08;98021.47;;;20.51;95.87
19884;BME280;10104;50.732;10.174;2023-06-22T03:32:31;98043.38;;;20.81;93.77
19884;BME280;10104;50.732;10.174;2023-06-22T03:34:52;98048.53;;;20.83;93.77
19884;BME280;10104;50.732;10.174;2023-06-22T03:37:14;98054.56;;;20.90;92.16
19884;BME280;10104;50.732;10.174;2023-06-22T03:39:36;98065.44;;;21.00;91.35
19884;BME280;10104;50.732;10.174;2023-06-22T03:41:57;98083.06;;;20.69;95.13
19884;BME280;10104;50.732;10.174;2023-06-22T03:44:18;98080.47;;;20.57;96.15
19884;BME280;10104;50.732;10.174;2023-06-22T03:46:40;98074.06;;;20.42;98.04
19884;BME280;10104;50.732;10.174;2023-06-22T03:49:02;98082.69;;;20.44;97.38
19884;BME280;10104;50.732;10.174;2023-06-22T03:51:26;98074.16;;;20.47;97.60
19884;BME280;10104;50.732;10.174;2023-06-22T03:53:47;98071.47;;;20.69;95.94
19884;BME280;10104;50.732;10.174;2023-06-22T03:56:09;98073.41;;;20.90;94.12
19884;BME280;10104;50.732;10.174;2023-06-22T03:58:30;98058.03;;;21.12;92.71
19884;BME280;10104;50.732;10.174;2023-06-22T04:00:54;98050.66;;;21.24;91.94
19884;BME280;10104;50.732;10.174;2023-06-22T04:03:16;98048.94;;;21.35;91.87
19884;BME280;10104;50.732;10.174;2023-06-22T04:05:41;98041.56;;;21.52;90.55
19884;BME280;10104;50.732;10.174;2023-06-22T04:08:03;98034.41;;;21.68;89.07
19884;BME280;10104;50.732;10.174;2023-06-22T04:10:24;98044.00;;;21.54;90.44
19884;BME280;10104;50.732;10.174;2023-06-22T04:12:46;98051.34;;;21.36;92.04
19884;BME280;10104;50.732;10.174;2023-06-22T04:15:08;98064.19;;;21.29;93.04
19884;BME280;10104;50.732;10.174;2023-06-22T04:17:30;98065.53;;;21.27;93.31
19884;BME280;10104;50.732;10.174;2023-06-22T04:19:52;98060.03;;;21.44;92.50
19884;BME280;10104;50.732;10.174;2023-06-22T04:22:13;98065.28;;;21.55;91.22
19884;BME280;10104;50.732;10.174;2023-06-22T04:24:35;98072.31;;;21.56;91.13
19884;BME280;10104;50.732;10.174;2023-06-22T04:26:56;98070.38;;;21.52;91.72
19884;BME280;10104;50.732;10.174;2023-06-22T04:29:18;98074.91;;;21.46;92.80
19884;BME280;10104;50.732;10.174;2023-06-22T04:31:39;98071.84;;;21.64;91.63
19884;BME280;10104;50.732;10.174;2023-06-22T04:34:01;98062.66;;;21.92;89.94
19884;BME280;10104;50.732;10.174;2023-06-22T04:36:27;98064.75;;;22.12;88.92
19884;BME280;10104;50.732;10.174;2023-06-22T04:38:58;98065.81;;;22.11;88.54
19884;BME280;10104;50.732;10.174;2023-06-22T04:41:19;98068.53;;;22.11;88.37
19884;BME280;10104;50.732;10.174;2023-06-22T04:43:45;98067.53;;;22.22;87.53
19884;BME280;10104;50.732;10.174;2023-06-22T04:46:16;98066.00;;;22.36;87.13
19884;BME280;10104;50.732;10.174;2023-06-22T04:48:38;98068.47;;;22.38;87.99
19884;BME280;10104;50.732;10.174;2023-06-22T04:51:01;98072.75;;;22.34;87.91
19884;BME280;10104;50.732;10.174;2023-06-22T04:53:26;98073.66;;;22.49;86.86
19884;BME280;10104;50.732;10.174;2023-06-22T04:55:50;98053.75;;;22.60;85.72
19884;BME280;10104;50.732;10.174;2023-06-22T04:58:14;98051.47;;;22.84;84.48
19884;BME280;10104;50.732;10.174;2023-06-22T05:00:35;98046.97;;;23.05;83.39
19884;BME280;10104;50.732;10.174;2023-06-22T05:02:57;98044.88;;;23.17;82.95
19884;BME280;10104;50.732;10.174;2023-06-22T05:05:39;98047.84;;;23.21;82.46
19884;BME280;10104;50.732;10.174;2023-06-22T05:08:00;98046.47;;;23.08;83.16
19884;BME280;10104;50.732;10.174;2023-06-22T05:10:22;98042.72;;;23.14;82.89
19884;BME280;10104;50.732;10.174;2023-06-22T05:12:44;98048.13;;;23.24;83.02
19884;BME280;10104;50.732;10.174;2023-06-22T05:15:09;98035.19;;;23.31;81.60
19884;BME280;10104;50.732;10.174;2023-06-22T05:17:31;98027.16;;;23.57;80.42
19884;BME280;10104;50.732;10.174;2023-06-22T05:19:53;98019.59;;;23.74;79.70
19884;BME280;10104;50.732;10.174;2023-06-22T05:22:15;98028.53;;;23.69;80.27
19884;BME280;10104;50.732;10.174;2023-06-22T05:24:36;98027.16;;;23.77;79.65
19884;BME280;10104;50.732;10.174;2023-06-22T05:26:58;98020.69;;;23.78;80.13
19884;BME280;10104;50.732;10.174;2023-06-22T05:29:19;98028.53;;;24.00;78.27
19884;BME280;10104;50.732;10.174;2023-06-22T05:31:43;98029.34;;;24.10;78.22
19884;BME280;10104;50.732;10.174;2023-06-22T05:34:04;98032.88;;;24.06;78.60
19884;BME280;10104;50.732;10.174;2023-06-22T05:36:26;98045.03;;;23.93;78.99
19884;BME280;10104;50.732;10.174;2023-06-22T05:38:47;98047.47;;;23.90;78.92
19884;BME280;10104;50.732;10.174;2023-06-22T05:41:09;98046.66;;;24.04;79.62
19884;BME280;10104;50.732;10.174;2023-06-22T05:43:30;98046.94;;;24.28;78.28
19884;BME280;10104;50.732;10.174;2023-06-22T05:45:52;98044.78;;;24.20;77.37
19884;BME280;10104;50.732;10.174;2023-06-22T05:48:13;98042.63;;;24.07;77.46
19884;BME280;10104;50.732;10.174;2023-06-22T05:50:36;98045.03;;;24.39;76.62
19884;BME280;10104;50.732;10.174;2023-06-22T05:52:58;98047.75;;;24.49;76.02
19884;BME280;10104;50.732;10.174;2023-06-22T05:55:19;98053.09;;;24.69;75.31
19884;BME280;10104;50.732;10.174;2023-06-22T05:57:41;98053.09;;;24.69;74.64
19884;BME280;10104;50.732;10.174;2023-06-22T06:00:03;98046.91;;;24.53;75.82
19884;BME280;10104;50.732;10.174;2023-06-22T06:02:28;98048.50;;;24.65;75.91
19884;BME280;10104;50.732;10.174;2023-06-22T06:04:49;98047.41;;;24.71;75.10
19884;BME280;10104;50.732;10.174;2023-06-22T06:07:12;98053.56;;;25.02;75.12
19884;BME280;10104;50.732;10.174;2023-06-22T06:09:33;98053.44;;;25.27;74.20
19884;BME280;10104;50.732;10.174;2023-06-22T06:11:55;98048.44;;;25.49;72.88
19884;BME280;10104;50.732;10.174;2023-06-22T06:14:16;98057.66;;;25.58;73.17
19884;BME280;10104;50.732;10.174;2023-06-22T06:16:38;98044.41;;;25.91;72.03
19884;BME280;10104;50.732;10.174;2023-06-22T06:19:00;98041.50;;;26.11;71.35
19884;BME280;10104;50.732;10.174;2023-06-22T06:21:22;98034.66;;;26.18;70.75
19884;BME280;10104;50.732;10.174;2023-06-22T06:23:43;98034.84;;;26.32;67.44
19884;BME280;10104;50.732;10.174;2023-06-22T06:26:05;98037.06;;;26.25;66.60
19884;BME280;10104;50.732;10.174;2023-06-22T06:28:28;98033.94;;;26.08;67.46
19884;BME280;10104;50.732;10.174;2023-06-22T06:30:49;98035.31;;;26.05;67.55
19884;BME280;10104;50.732;10.174;2023-06-22T06:33:13;98034.09;;;25.88;68.74
19884;BME280;10104;50.732;10.174;2023-06-22T06:35:34;98039.03;;;25.86;69.12
19884;BME280;10104;50.732;10.174;2023-06-22T06:37:56;98031.69;;;25.81;69.03
19884;BME280;10104;50.732;10.174;2023-06-22T06:40:18;98025.72;;;25.84;69.36
19884;BME280;10104;50.732;10.174;2023-06-22T06:42:42;98028.22;;;26.09;67.72
19884;BME280;10104;50.732;10.174;2023-06-22T06:45:06;98025.06;;;26.31;67.15
19884;BME280;10104;50.732;10.174;2023-06-22T06:47:28;98029.03;;;26.10;68.86
19884;BME280;10104;50.732;10.174;2023-06-22T06:49:49;98021.59;;;25.92;70.71
19884;BME280;10104;50.732;10.174;2023-06-22T06:52:11;98017.81;;;25.88;71.79
19884;BME280;10104;50.732;10.174;2023-06-22T06:54:32;98012.47;;;25.77;73.13
19884;BME280;10104;50.732;10.174;2023-06-22T06:56:54;98010.63;;;25.73;72.90
19884;BME280;10104;50.732;10.174;2023-06-22T06:59:15;98009.06;;;25.62;73.59
19884;BME280;10104;50.732;10.174;2023-06-22T07:01:37;98014.69;;;25.70;72.57
19884;BME280;10104;50.732;10.174;2023-06-22T07:03:59;98008.00;;;25.58;74.06
19884;BME280;10104;50.732;10.174;2023-06-22T07:06:21;97998.66;;;25.74;72.96
19884;BME280;10104;50.732;10.174;2023-06-22T07:08:43;97994.09;;;25.69;73.60
19884;BME280;10104;50.732;10.174;2023-06-22T07:11:04;97991.69;;;25.63;74.46
19884;BME280;10104;50.732;10.174;2023-06-22T07:13:26;97996.91;;;25.88;72.47
19884;BME280;10104;50.732;10.174;2023-06-22T07:15:47;97998.00;;;25.87;73.89
19884;BME280;10104;50.732;10.174;2023-06-22T07:18:09;97995.72;;;25.99;73.51
19884;BME280;10104;50.732;10.174;2023-06-22T07:20:30;97997.44;;;26.24;72.06
19884;BME280;10104;50.732;10.174;2023-06-22T07:22:53;98003.25;;;26.41;71.45
19884;BME280;10104;50.732;10.174;2023-06-22T07:25:14;97992.56;;;26.50;70.97
19884;BME280;10104;50.732;10.174;2023-06-22T07:27:38;97985.81;;;26.47;70.67
19884;BME280;10104;50.732;10.174;2023-06-22T07:30:02;97981.34;;;26.56;70.42
19884;BME280;10104;50.732;10.174;2023-06-22T07:32:24;97987.66;;;26.52;70.58
19884;BME280;10104;50.732;10.174;2023-06-22T07:34:45;97983.72;;;26.63;69.48
19884;BME280;10104;50.732;10.174;2023-06-22T07:37:07;97987.97;;;26.69;70.02
19884;BME280;10104;50.732;10.174;2023-06-22T07:39:28;97991.09;;;26.81;70.45
19884;BME280;10104;50.732;10.174;2023-06-22T07:41:50;97988.00;;;26.93;69.42
19884;BME280;10104;50.732;10.174;2023-06-22T07:44:12;97991.63;;;27.26;69.32
19884;BME280;10104;50.732;10.174;2023-06-22T07:46:33;97977.00;;;27.41;67.93
19884;BME280;10104;50.732;10.174;2023-06-22T07:48:56;97978.13;;;27.40;65.87
19884;BME280;10104;50.732;10.174;2023-06-22T07:51:17;97972.69;;;27.58;65.21
19884;BME280;10104;50.732;10.174;2023-06-22T07:53:41;97971.34;;;27.74;65.17
19884;BME280;10104;50.732;10.174;2023-06-22T07:56:02;97959.88;;;27.91;63.60
19884;BME280;10104;50.732;10.174;2023-06-22T07:58:28;97955.47;;;27.95;64.79
19884;BME280;10104;50.732;10.174;2023-06-22T08:00:49;97956.38;;;28.04;63.12
19884;BME280;10104;50.732;10.174;2023-06-22T08:03:11;97954.47;;;28.05;62.30
19884;BME280;10104;50.732;10.174;2023-06-22T08:05:32;97953.72;;;28.18;64.05
19884;BME280;10104;50.732;10.174;2023-06-22T08:07:54;97937.06;;;28.33;60.94
19884;BME280;10104;50.732;10.174;2023-06-22T08:10:17;97933.97;;;28.40;58.92
19884;BME280;10104;50.732;10.174;2023-06-22T08:12:40;97940.09;;;28.45;61.09
19884;BME280;10104;50.732;10.174;2023-06-22T08:15:01;97939.00;;;28.60;61.12
19884;BME280;10104;50.732;10.174;2023-06-22T08:17:24;97940.75;;;28.70;57.92
19884;BME280;10104;50.732;10.174;2023-06-22T08:19:46;97937.59;;;28.90;57.61
19884;BME280;10104;50.732;10.174;2023-06-22T08:22:07;97940.19;;;28.95;57.24
19884;BME280;10104;50.732;10.174;2023-06-22T08:24:28;97932.81;;;28.95;57.01
19884;BME280;10104;50.732;10.174;2023-06-22T08:26:52;97938.94;;;29.15;57.20
19884;BME280;10104;50.732;10.174;2023-06-22T08:29:13;97941.75;;;29.23;56.01
19884;BME280;10104;50.732;10.174;2023-06-22T08:31:35;97947.56;;;29.44;54.77
19884;BME280;10104;50.732;10.174;2023-06-22T08:33:57;97945.44;;;29.55;55.96
19884;BME280;10104;50.732;10.174;2023-06-22T08:36:19;97943.41;;;29.69;54.29
19884;BME280;10104;50.732;10.174;2023-06-22T08:38:40;97943.56;;;29.86;54.19
19884;BME280;10104;50.732;10.174;2023-06-22T08:41:02;97935.28;;;30.00;53.19
19884;BME280;10104;50.732;10.174;2023-06-22T08:43:24;97929.03;;;29.77;54.08
19884;BME280;10104;50.732;10.174;2023-06-22T08:45:45;97926.06;;;29.87;52.86
19884;BME280;10104;50.732;10.174;2023-06-22T08:48:07;97927.66;;;30.10;53.24
19884;BME280;10104;50.732;10.174;2023-06-22T08:50:28;97922.78;;;29.99;53.14
19884;BME280;10104;50.732;10.174;2023-06-22T08:52:50;97921.91;;;30.21;51.66
19884;BME280;10104;50.732;10.174;2023-06-22T08:55:12;97923.44;;;30.04;52.45
19884;BME280;10104;50.732;10.174;2023-06-22T08:57:34;97916.94;;;30.23;51.58
19884;BME280;10104;50.732;10.174;2023-06-22T08:59:55;97913.56;;;30.65;48.91
19884;BME280;10104;50.732;10.174;2023-06-22T09:02:20;97916.78;;;30.59;48.45
19884;BME280;10104;50.732;10.174;2023-06-22T09:04:41;97922.78;;;30.86;50.17
19884;BME280;10104;50.732;10.174;2023-06-22T09:07:04;97915.44;;;31.13;48.43
19884;BME280;10104;50.732;10.174;2023-06-22T09:09:25;97912.06;;;31.16;49.17
19884;BME280;10104;50.732;10.174;2023-06-22T09:11:47;97906.13;;;31.22;48.20
19884;BME280;10104;50.732;10.174;2023-06-22T09:14:09;97906.25;;;31.26;48.80
19884;BME280;10104;50.732;10.174;2023-06-22T09:16:30;97899.03;;;31.47;47.20
19884;BME280;10104;50.732;10.174;2023-06-22T09:18:52;97897.41;;;31.38;47.63
19884;BME280;10104;50.732;10.174;2023-06-22T09:21:13;97888.53;;;31.23;47.35
19884;BME280;10104;50.732;10.174;2023-06-22T09:23:35;97893.53;;;31.13;48.15
19884;BME280;10104;50.732;10.174;2023-06-22T09:25:57;97892.09;;;31.07;46.81
19884;BME280;10104;50.732;10.174;2023-06-22T09:28:18;97895.47;;;31.47;49.55
19884;BME280;10104;50.732;10.174;2023-06-22T09:30:39;97886.31;;;31.60;46.63
19884;BME280;10104;50.732;10.174;2023-06-22T09:33:01;97885.00;;;31.31;46.70
19884;BME280;10104;50.732;10.174;2023-06-22T09:35:23;97878.06;;;31.51;44.95
19884;BME280;10104;50.732;10.174;2023-06-22T09:37:45;97873.53;;;31.72;44.20
19884;BME280;10104;50.732;10.174;2023-06-22T09:40:07;97870.16;;;31.67;45.31
19884;BME280;10104;50.732;10.174;2023-06-22T09:42:31;97862.44;;;31.69;46.16
19884;BME280;10104;50.732;10.174;2023-06-22T09:44:52;97859.50;;;31.83;45.35
19884;BME280;10104;50.732;10.174;2023-06-22T09:47:14;97871.16;;;32.18;45.15
19884;BME280;10104;50.732;10.174;2023-06-22T09:49:35;97860.09;;;32.35;45.21
19884;BME280;10104;50.732;10.174;2023-06-22T09:52:08;97866.44;;;32.56;44.14
19884;BME280;10104;50.732;10.174;2023-06-22T09:54:30;97868.81;;;32.66;44.51
19884;BME280;10104;50.732;10.174;2023-06-22T09:56:52;97867.63;;;32.97;44.19
19884;BME280;10104;50.732;10.174;2023-06-22T09:59:13;97864.78;;;33.14;43.11
19884;BME280;10104;50.732;10.174;2023-06-22T10:01:39;97866.13;;;33.28;42.60
19884;BME280;10104;50.732;10.174;2023-06-22T10:04:02;97858.69;;;33.62;40.67
19884;BME280;10104;50.732;10.174;2023-06-22T10:06:24;97855.69;;;33.88;40.80
19884;BME280;10104;50.732;10.174;2023-06-22T10:08:46;97862.66;;;33.52;40.11
19884;BME280;10104;50.732;10.174;2023-06-22T10:11:09;97859.69;;;33.45;41.32
19884;BME280;10104;50.732;10.174;2023-06-22T10:13:31;97846.97;;;33.53;41.13
19884;BME280;10104;50.732;10.174;2023-06-22T10:15:52;97849.63;;;33.82;42.05
19884;BME280;10104;50.732;10.174;2023-06-22T10:18:14;97856.13;;;33.90;40.75
19884;BME280;10104;50.732;10.174;2023-06-22T10:20:36;97855.63;;;34.21;39.38
19884;BME280;10104;50.732;10.174;2023-06-22T10:22:57;97847.09;;;34.99;38.87
19884;BME280;10104;50.732;10.174;2023-06-22T10:25:21;97849.19;;;35.29;38.58
19884;BME280;10104;50.732;10.174;2023-06-22T10:27:43;97840.94;;;35.17;38.04
19884;BME280;10104;50.732;10.174;2023-06-22T10:30:08;97844.28;;;35.66;37.59
19884;BME280;10104;50.732;10.174;2023-06-22T10:32:30;97840.94;;;35.89;37.48
19884;BME280;10104;50.732;10.174;2023-06-22T10:34:51;97838.34;;;36.12;36.75
19884;BME280;10104;50.732;10.174;2023-06-22T10:37:13;97830.66;;;36.17;36.96
19884;BME280;10104;50.732;10.174;2023-06-22T10:39:34;97829.50;;;35.59;36.85
19884;BME280;10104;50.732;10.174;2023-06-22T10:41:56;97830.28;;;35.44;38.55
19884;BME280;10104;50.732;10.174;2023-06-22T10:44:17;97827.50;;;35.44;36.83
19884;BME280;10104;50.732;10.174;2023-06-22T10:46:39;97818.13;;;35.60;36.43
19884;BME280;10104;50.732;10.174;2023-06-22T10:49:00;97820.56;;;35.34;36.34
19884;BME280;10104;50.732;10.174;2023-06-22T10:51:22;97811.59;;;34.57;37.55
19884;BME280;10104;50.732;10.174;2023-06-22T10:53:43;97807.72;;;34.98;37.11
19884;BME280;10104;50.732;10.174;2023-06-22T10:56:05;97808.88;;;35.53;37.51
19884;BME280;10104;50.732;10.174;2023-06-22T10:58:26;97796.25;;;35.36;36.33
19884;BME280;10104;50.732;10.174;2023-06-22T11:00:48;97797.84;;;35.53;37.05
19884;BME280;10104;50.732;10.174;2023-06-22T11:03:10;97800.81;;;35.60;36.60
19884;BME280;10104;50.732;10.174;2023-06-22T11:05:34;97798.06;;;36.07;37.04
19884;BME280;10104;50.732;10.174;2023-06-22T11:07:55;97786.69;;;36.24;34.42
19884;BME280;10104;50.732;10.174;2023-06-22T11:10:17;97791.78;;;36.57;34.04
19884;BME280;10104;50.732;10.174;2023-06-22T11:12:38;97787.56;;;36.63;34.89
19884;BME280;10104;50.732;10.174;2023-06-22T11:15:01;97789.56;;;36.82;35.23
19884;BME280;10104;50.732;10.174;2023-06-22T11:17:22;97788.72;;;36.97;34.99
19884;BME280;10104;50.732;10.174;2023-06-22T11:19:44;97783.69;;;36.83;34.18
19884;BME280;10104;50.732;10.174;2023-06-22T11:22:06;97791.84;;;36.96;34.85
19884;BME280;10104;50.732;10.174;2023-06-22T11:24:27;97780.66;;;37.50;33.63
19884;BME280;10104;50.732;10.174;2023-06-22T11:26:49;97777.88;;;37.92;32.54
19884;BME280;10104;50.732;10.174;2023-06-22T11:29:10;97770.41;;;38.19;32.77
19884;BME280;10104;50.732;10.174;2023-06-22T11:31:48;97757.59;;;38.07;32.18
19884;BME280;10104;50.732;10.174;2023-06-22T11:34:09;97758.34;;;38.30;31.78
19884;BME280;10104;50.732;10.174;2023-06-22T11:36:31;97751.53;;;38.80;32.10
19884;BME280;10104;50.732;10.174;2023-06-22T11:38:54;97746.59;;;39.34;31.56
19884;BME280;10104;50.732;10.174;2023-06-22T11:41:16;97744.97;;;39.70;29.69
19884;BME280;10104;50.732;10.174;2023-06-22T11:43:37;97731.91;;;40.18;28.75
19884;BME280;10104;50.732;10.174;2023-06-22T11:46:00;97725.97;;;41.02;28.65
19884;BME280;10104;50.732;10.174;2023-06-22T11:48:22;97723.34;;;41.52;28.30
19884;BME280;10104;50.732;10.174;2023-06-22T11:50:43;97718.53;;;42.23;26.42
19884;BME280;10104;50.732;10.174;2023-06-22T11:53:05;97710.81;;;42.81;25.95
19884;BME280;10104;50.732;10.174;2023-06-22T11:55:26;97707.09;;;43.05;25.99
19884;BME280;10104;50.732;10.174;2023-06-22T11:57:55;97696.22;;;43.32;25.32
19884;BME280;10104;50.732;10.174;2023-06-22T12:00:17;97686.63;;;43.84;25.68
19884;BME280;10104;50.732;10.174;2023-06-22T12:02:40;97680.59;;;44.27;24.26
19884;BME280;10104;50.732;10.174;2023-06-22T12:05:02;97673.53;;;44.87;23.99
19884;BME280;10104;50.732;10.174;2023-06-22T12:07:26;97673.06;;;46.15;23.13
19884;BME280;10104;50.732;10.174;2023-06-22T12:09:47;97674.97;;;46.97;22.14
19884;BME280;10104;50.732;10.174;2023-06-22T12:12:09;97679.00;;;47.48;22.73
19884;BME280;10104;50.732;10.174;2023-06-22T12:14:31;97671.22;;;47.72;20.86
19884;BME280;10104;50.732;10.174;2023-06-22T12:16:53;97671.75;;;47.67;21.27
19884;BME280;10104;50.732;10.174;2023-06-22T12:19:14;97663.13;;;47.42;20.72
19884;BME280;10104;50.732;10.174;2023-06-22T12:21:37;97663.69;;;47.01;21.01
19884;BME280;10104;50.732;10.174;2023-06-22T12:23:58;97659.56;;;46.50;21.40
19884;BME280;10104;50.732;10.174;2023-06-22T12:26:20;97656.50;;;46.64;21.68
19884;BME280;10104;50.732;10.174;2023-06-22T12:28:42;97649.81;;;44.95;21.81